createdAt,value
2023-02-20T00:01:37.207Z,3.00
2023-02-20T00:05:03.941Z,2.90
2023-02-20T00:08:31.003Z,2.60
2023-02-20T00:11:57.558Z,3.20
2023-02-20T00:15:24.999Z,3.40
2023-02-20T00:18:52.099Z,3.20
2023-02-20T00:22:22.717Z,2.80
2023-02-20T00:25:49.690Z,3.20
2023-02-20T00:29:18.954Z,2.70
2023-02-20T00:32:50.110Z,2.40
2023-02-20T00:36:24.011Z,2.70
2023-02-20T00:39:54.131Z,2.70
2023-02-20T00:43:21.564Z,3.00
2023-02-20T00:46:48.402Z,2.70
2023-02-20T00:50:17.890Z,2.90
2023-02-20T00:53:45.253Z,2.90
2023-02-20T00:57:12.349Z,2.70
2023-02-20T01:00:39.365Z,3.10
2023-02-20T01:04:06.659Z,2.60
2023-02-20T01:07:39.510Z,2.40
2023-02-20T01:11:12.237Z,2.50
2023-02-20T01:14:39.557Z,2.50
2023-02-20T01:18:09.350Z,2.20
2023-02-20T01:21:37.130Z,2.10
2023-02-20T01:25:05.024Z,2.30
2023-02-20T01:28:34.913Z,2.20
2023-02-20T01:32:04.029Z,2.30
2023-02-20T01:35:32.403Z,2.50
2023-02-20T01:38:59.995Z,2.40
2023-02-20T01:42:30.156Z,2.40
2023-02-20T01:46:11.240Z,1.80
2023-02-20T01:49:41.175Z,2.10
2023-02-20T01:53:12.690Z,2.00
2023-02-20T01:56:40.105Z,2.00
2023-02-20T02:00:12.107Z,1.90
2023-02-20T02:03:45.532Z,2.20
2023-02-20T02:07:13.426Z,2.20
2023-02-20T02:10:49.976Z,2.10
2023-02-20T02:14:16.680Z,2.70
2023-02-20T02:18:05.374Z,2.60
2023-02-20T02:22:14.185Z,2.50
2023-02-20T02:25:50.308Z,2.40
2023-02-20T02:29:55.073Z,2.50
2023-02-20T02:33:56.945Z,2.80
2023-02-20T02:37:32.062Z,2.60
2023-02-20T02:41:13.892Z,2.20
2023-02-20T02:44:49.122Z,2.70
2023-02-20T02:48:22.644Z,2.40
2023-02-20T02:51:51.113Z,2.20
2023-02-20T02:55:21.920Z,2.20
2023-02-20T02:58:50.758Z,2.40
2023-02-20T03:02:18.932Z,2.30
2023-02-20T03:05:52.163Z,2.40
2023-02-20T03:09:21.951Z,2.40
2023-02-20T03:12:52.838Z,2.50
2023-02-20T03:16:24.333Z,2.40
2023-02-20T03:19:53.785Z,2.30
2023-02-20T03:23:26.716Z,2.20
2023-02-20T03:26:57.632Z,2.00
2023-02-20T03:30:28.577Z,2.20
2023-02-20T03:34:18.542Z,2.50
2023-02-20T03:38:04.869Z,2.20
2023-02-20T03:41:52.534Z,2.40
2023-02-20T03:45:23.485Z,2.00
2023-02-20T03:48:55.844Z,3.00
2023-02-20T03:52:23.995Z,3.40
2023-02-20T03:55:53.553Z,2.40
2023-02-20T03:59:24.092Z,2.60
2023-02-20T04:02:54.631Z,2.60
2023-02-20T04:06:28.737Z,2.90
2023-02-20T04:10:01.368Z,2.80
2023-02-20T04:13:30.706Z,2.10
2023-02-20T04:17:01.559Z,2.10
2023-02-20T04:20:29.215Z,2.20
2023-02-20T04:24:08.529Z,2.80
2023-02-20T04:27:35.701Z,2.30
2023-02-20T04:31:03.232Z,2.60
2023-02-20T04:34:30.742Z,2.30
2023-02-20T04:37:59.456Z,2.40
2023-02-20T04:41:26.456Z,2.10
2023-02-20T04:44:53.547Z,2.80
2023-02-20T04:48:20.727Z,2.50
2023-02-20T04:51:47.391Z,2.60
2023-02-20T04:55:14.309Z,2.40
2023-02-20T04:58:41.284Z,2.20
2023-02-20T05:02:15.760Z,2.80
2023-02-20T05:05:42.651Z,2.80
2023-02-20T05:09:11.192Z,2.90
2023-02-20T05:12:37.770Z,3.50
2023-02-20T05:16:04.720Z,2.90
2023-02-20T05:19:31.524Z,3.80
2023-02-20T05:22:58.089Z,4.30
2023-02-20T05:26:25.396Z,4.00
2023-02-20T05:29:55.176Z,3.70
2023-02-20T05:33:22.143Z,3.30
2023-02-20T05:36:48.530Z,3.40
2023-02-20T05:40:15.902Z,3.70
2023-02-20T05:43:43.723Z,2.70
2023-02-20T05:47:10.773Z,2.80
2023-02-20T05:50:37.371Z,3.20
2023-02-20T05:54:06.453Z,3.40
2023-02-20T05:57:33.281Z,3.10
2023-02-20T06:01:00.852Z,2.80
2023-02-20T06:04:29.034Z,3.10
2023-02-20T06:07:56.423Z,3.00
2023-02-20T06:11:23.437Z,2.70
2023-02-20T06:14:49.996Z,3.40
2023-02-20T06:18:19.205Z,3.20
2023-02-20T06:21:50.420Z,3.20
2023-02-20T06:25:17.150Z,4.20
2023-02-20T06:28:44.242Z,4.10
2023-02-20T06:32:11.811Z,3.40
2023-02-20T06:35:39.121Z,4.30
2023-02-20T06:39:07.700Z,3.70
2023-02-20T06:42:34.864Z,4.50
2023-02-20T06:46:01.512Z,4.20
2023-02-20T06:49:28.268Z,4.60
2023-02-20T06:52:54.974Z,4.10
2023-02-20T06:56:24.947Z,4.10
2023-02-20T06:59:51.357Z,5.10
2023-02-20T07:03:18.764Z,4.60
2023-02-20T07:06:47.406Z,6.00
2023-02-20T07:10:14.271Z,28.30
2023-02-20T07:13:40.876Z,8.50
2023-02-20T07:17:07.482Z,8.90
2023-02-20T07:20:34.093Z,7.80
2023-02-20T07:24:00.987Z,8.00
2023-02-20T07:27:28.160Z,5.70
2023-02-20T07:30:55.040Z,7.90
2023-02-20T07:34:21.457Z,7.50
2023-02-20T07:37:49.149Z,11.10
2023-02-20T07:41:18.475Z,9.70
2023-02-20T07:44:47.067Z,15.70
2023-02-20T07:48:13.903Z,15.00
2023-02-20T07:51:40.662Z,15.80
2023-02-20T07:55:08.172Z,7.80
2023-02-20T07:58:34.884Z,8.10
2023-02-20T08:02:01.791Z,6.40
2023-02-20T08:05:40.113Z,6.30
2023-02-20T08:09:10.995Z,6.40
2023-02-20T08:12:38.435Z,6.40
2023-02-20T08:16:05.350Z,6.50
2023-02-20T08:19:32.117Z,7.70
2023-02-20T08:23:00.953Z,7.30
2023-02-20T08:26:28.299Z,7.30
2023-02-20T08:29:55.557Z,7.80
2023-02-20T08:33:22.231Z,8.60
2023-02-20T08:36:49.716Z,7.80
2023-02-20T08:40:16.995Z,7.80
2023-02-20T08:43:45.120Z,9.70
2023-02-20T08:47:12.119Z,8.70
2023-02-20T08:50:39.158Z,8.80
2023-02-20T08:54:05.880Z,8.20
2023-02-20T08:57:32.392Z,8.80
2023-02-20T09:00:58.884Z,8.30
2023-02-20T09:04:25.380Z,8.20
2023-02-20T09:07:52.431Z,7.80
2023-02-20T09:11:19.485Z,7.60
2023-02-20T09:14:46.657Z,9.80
2023-02-20T09:18:16.071Z,8.50
2023-02-20T09:21:42.551Z,6.80
2023-02-20T09:25:11.969Z,6.50
2023-02-20T09:28:41.069Z,7.10
2023-02-20T09:32:08.539Z,6.50
2023-02-20T09:35:35.832Z,6.70
2023-02-20T09:39:02.228Z,6.70
2023-02-20T09:42:38.047Z,7.20
2023-02-20T09:46:12.135Z,9.00
2023-02-20T09:49:40.091Z,7.90
2023-02-20T09:53:17.155Z,8.00
2023-02-20T09:56:47.456Z,10.00
2023-02-20T10:00:23.397Z,7.40
2023-02-20T10:03:58.466Z,8.30
2023-02-20T10:07:28.997Z,7.30
2023-02-20T10:11:03.871Z,7.40
2023-02-20T10:14:53.522Z,8.00
2023-02-20T10:18:32.375Z,7.60
2023-02-20T10:22:11.814Z,8.30
2023-02-20T10:25:42.456Z,8.30
2023-02-20T10:29:19.434Z,7.60
2023-02-20T10:32:50.366Z,8.10
2023-02-20T10:36:22.502Z,8.80
2023-02-20T10:39:57.017Z,9.30
2023-02-20T10:43:30.327Z,9.70
2023-02-20T10:47:06.048Z,9.00
2023-02-20T10:50:39.897Z,9.10
2023-02-20T10:54:12.301Z,10.70
2023-02-20T10:57:43.219Z,10.10
2023-02-20T11:01:14.716Z,12.10
2023-02-20T11:04:49.413Z,12.00
2023-02-20T11:08:21.300Z,14.00
2023-02-20T11:11:49.143Z,14.10
2023-02-20T11:15:19.349Z,12.30
2023-02-20T11:18:48.152Z,13.00
2023-02-20T11:22:15.349Z,11.20
2023-02-20T11:25:42.760Z,10.80
2023-02-20T11:29:16.941Z,11.30
2023-02-20T11:32:44.990Z,10.70
2023-02-20T11:36:21.000Z,10.80
2023-02-20T11:39:51.294Z,10.80
2023-02-20T11:43:23.802Z,10.80
2023-02-20T11:47:09.449Z,9.80
2023-02-20T11:50:43.077Z,11.50
2023-02-20T11:54:18.184Z,11.40
2023-02-20T11:57:50.137Z,10.60
2023-02-20T12:01:32.272Z,11.80
2023-02-20T12:05:15.477Z,10.80
2023-02-20T12:08:55.409Z,11.00
2023-02-20T12:12:24.769Z,11.40
2023-02-20T12:16:01.415Z,10.70
2023-02-20T12:19:38.575Z,11.10
2023-02-20T12:23:18.661Z,10.60
2023-02-20T12:26:54.635Z,11.20
2023-02-20T12:30:36.465Z,11.00
2023-02-20T12:34:30.399Z,10.70
2023-02-20T12:38:08.455Z,10.60
2023-02-20T12:41:50.614Z,10.50
2023-02-20T12:45:33.957Z,12.50
2023-02-20T12:49:20.779Z,13.40
2023-02-20T12:53:05.339Z,13.40
2023-02-20T12:56:47.648Z,11.90
2023-02-20T13:00:30.240Z,11.50
2023-02-20T13:04:05.639Z,10.90
2023-02-20T13:07:40.608Z,11.30
2023-02-20T13:11:12.491Z,10.70
2023-02-20T13:14:54.241Z,10.70
2023-02-20T13:18:29.765Z,10.00
2023-02-20T13:21:57.913Z,10.90
2023-02-20T13:25:45.756Z,10.00
2023-02-20T13:29:18.380Z,10.50
2023-02-20T13:33:15.222Z,10.30
2023-02-20T13:36:44.807Z,9.80
2023-02-20T13:40:50.348Z,9.60
2023-02-20T13:44:51.161Z,9.60
2023-02-20T13:48:42.344Z,9.40
2023-02-20T13:52:41.434Z,8.90
2023-02-20T13:56:16.119Z,9.50
2023-02-20T13:59:43.876Z,9.50
2023-02-20T14:03:15.785Z,8.80
2023-02-20T14:06:58.557Z,8.30
2023-02-20T14:13:59.335Z,9.30
2023-02-20T14:17:28.644Z,8.90
2023-02-20T14:21:00.475Z,8.40
2023-02-20T14:24:30.240Z,7.80
2023-02-20T14:28:08.333Z,7.20
2023-02-20T14:31:37.696Z,7.10
2023-02-20T14:35:14.634Z,6.60
2023-02-20T14:38:56.794Z,6.50
2023-02-20T14:42:25.942Z,6.60
2023-02-20T14:46:04.662Z,7.10
2023-02-20T14:49:34.780Z,7.10
2023-02-20T14:53:17.338Z,7.20
2023-02-20T14:56:50.219Z,5.90
2023-02-20T15:00:35.466Z,5.30
2023-02-20T15:04:07.408Z,6.00
2023-02-20T15:07:37.022Z,5.40
2023-02-20T15:11:14.017Z,5.80
2023-02-20T15:14:45.827Z,5.30
2023-02-20T15:18:17.849Z,5.00
2023-02-20T15:21:47.702Z,5.30
2023-02-20T15:25:31.254Z,5.00
2023-02-20T15:29:22.397Z,5.70
2023-02-20T15:32:56.347Z,5.60
2023-02-20T15:36:26.479Z,7.80
2023-02-20T15:39:53.901Z,5.70
2023-02-20T15:43:38.295Z,5.00
2023-02-20T15:47:08.924Z,5.20
2023-02-20T15:50:37.996Z,4.90
2023-02-20T15:54:05.132Z,4.60
2023-02-20T15:57:32.000Z,4.70
2023-02-20T16:00:58.802Z,4.60
2023-02-20T16:04:25.779Z,4.30
2023-02-20T16:07:52.885Z,4.40
2023-02-20T16:11:20.948Z,3.80
2023-02-20T16:14:56.068Z,4.00
2023-02-20T16:18:24.053Z,3.80
2023-02-20T16:21:59.278Z,4.20
2023-02-20T16:25:27.473Z,4.30
2023-02-20T16:28:58.072Z,3.90
2023-02-20T16:32:27.871Z,3.90
2023-02-20T16:35:55.535Z,3.80
2023-02-20T16:39:26.910Z,3.60
2023-02-20T16:42:54.323Z,3.10
2023-02-20T16:46:37.295Z,3.80
2023-02-20T16:50:08.209Z,3.80
2023-02-20T16:53:35.506Z,3.60
2023-02-20T16:57:02.983Z,2.60
2023-02-20T17:00:32.551Z,3.00
2023-02-20T17:04:00.262Z,3.60
2023-02-20T17:07:27.935Z,3.40
2023-02-20T17:10:56.128Z,3.80
2023-02-20T17:14:23.108Z,4.10
2023-02-20T17:17:50.778Z,3.70
2023-02-20T17:21:17.531Z,3.40
2023-02-20T17:24:46.046Z,3.00
2023-02-20T17:28:16.284Z,3.80
2023-02-20T17:31:43.988Z,3.30
2023-02-20T17:35:14.022Z,3.40
2023-02-20T17:38:44.858Z,3.70
2023-02-20T17:42:12.863Z,2.40
2023-02-20T17:45:40.405Z,3.50
2023-02-20T17:49:07.552Z,3.70
2023-02-20T17:52:38.347Z,3.30
2023-02-20T17:56:05.234Z,2.50
2023-02-20T17:59:32.219Z,2.60
2023-02-20T18:02:59.555Z,2.90
2023-02-20T18:06:27.249Z,2.80
2023-02-20T18:09:56.052Z,3.50
2023-02-20T18:13:23.933Z,4.10
2023-02-20T18:16:51.392Z,4.30
2023-02-20T18:20:18.389Z,4.40
2023-02-20T18:23:46.432Z,4.70
2023-02-20T18:27:17.134Z,4.20
2023-02-20T18:30:43.925Z,3.30
2023-02-20T18:34:12.072Z,3.10
2023-02-20T18:37:39.917Z,4.30
2023-02-20T18:41:08.824Z,2.90
2023-02-20T18:44:39.080Z,2.80
2023-02-20T18:48:07.114Z,2.80
2023-02-20T18:51:36.362Z,2.70
2023-02-20T18:55:03.449Z,2.90
2023-02-20T18:58:31.530Z,2.20
2023-02-20T19:01:59.687Z,2.90
2023-02-20T19:05:27.952Z,3.50
2023-02-20T19:09:03.466Z,3.00
2023-02-20T19:12:32.437Z,4.50
2023-02-20T19:15:59.350Z,6.00
2023-02-20T19:19:28.259Z,3.10
2023-02-20T19:22:58.737Z,2.80
2023-02-20T19:26:28.357Z,2.10
2023-02-20T19:29:59.360Z,2.00
2023-02-20T19:33:30.714Z,2.30
2023-02-20T19:37:00.989Z,2.20
2023-02-20T19:40:32.216Z,3.50
2023-02-20T19:44:00.759Z,3.30
2023-02-20T19:47:32.441Z,2.60
2023-02-20T19:50:59.293Z,2.40
2023-02-20T19:54:30.565Z,2.50
2023-02-20T19:57:58.156Z,2.50
2023-02-20T20:01:28.653Z,2.00
2023-02-20T20:04:55.786Z,2.20
2023-02-20T20:08:23.897Z,1.90
2023-02-20T20:11:50.838Z,2.30
2023-02-20T20:15:19.503Z,2.10
2023-02-20T20:18:49.311Z,1.80
2023-02-20T20:22:16.934Z,1.30
2023-02-20T20:25:44.497Z,1.40
2023-02-20T20:29:12.003Z,1.80
2023-02-20T20:32:39.255Z,1.80
2023-02-20T20:36:07.174Z,2.40
2023-02-20T20:39:36.901Z,2.80
2023-02-20T20:43:07.888Z,2.30
2023-02-20T20:46:38.306Z,1.90
2023-02-20T20:50:06.949Z,2.10
2023-02-20T20:53:34.502Z,1.80
2023-02-20T20:57:01.711Z,1.40
2023-02-20T21:00:33.674Z,2.80
2023-02-20T21:04:00.391Z,1.80
2023-02-20T21:07:27.262Z,1.40
2023-02-20T21:10:55.660Z,1.50
2023-02-20T21:14:22.889Z,1.50
2023-02-20T21:17:50.657Z,2.00
2023-02-20T21:21:20.159Z,1.60
2023-02-20T21:24:51.148Z,1.90
2023-02-20T21:28:18.199Z,1.50
2023-02-20T21:31:49.065Z,1.30
2023-02-20T21:35:19.044Z,2.00
2023-02-20T21:38:47.027Z,2.60
2023-02-20T21:42:33.995Z,2.00
2023-02-20T21:46:02.347Z,1.70
2023-02-20T21:49:34.541Z,1.70
2023-02-20T21:53:02.414Z,1.60
2023-02-20T21:56:31.647Z,1.50
2023-02-20T21:59:59.028Z,2.20
2023-02-20T22:03:24.786Z,1.00
2023-02-20T22:07:10.892Z,1.30
2023-02-20T22:10:56.319Z,1.50
2023-02-20T22:14:41.441Z,1.40
2023-02-20T22:18:27.932Z,1.50
2023-02-20T22:22:19.101Z,1.10
2023-02-20T22:26:05.735Z,1.40
2023-02-20T22:29:54.379Z,1.50
2023-02-20T22:33:40.152Z,1.40
2023-02-20T22:37:27.150Z,1.30
2023-02-20T22:41:13.139Z,1.40
2023-02-20T22:44:58.228Z,1.20
2023-02-20T22:48:42.613Z,1.40
2023-02-20T22:52:26.787Z,1.50
2023-02-20T22:56:11.926Z,0.80
2023-02-20T22:59:58.275Z,1.20
2023-02-20T23:03:43.344Z,1.40
2023-02-20T23:07:28.026Z,1.60
2023-02-20T23:11:14.868Z,1.30
2023-02-20T23:15:00.146Z,1.20
2023-02-20T23:19:06.561Z,1.50
2023-02-20T23:22:50.886Z,1.80
2023-02-20T23:26:35.091Z,1.70
2023-02-20T23:30:20.931Z,1.60
2023-02-20T23:34:05.256Z,1.60
2023-02-20T23:37:49.486Z,1.10
2023-02-20T23:41:34.583Z,1.50
2023-02-20T23:45:20.075Z,1.70
2023-02-20T23:49:05.360Z,1.30
2023-02-20T23:52:51.152Z,1.50
2023-02-20T23:56:36.848Z,1.70
